sensor_id;sensor_type;location;lat;lon;timestamp;temperature;humidity
68378;DHT22;55322;48.146;11.516;2023-06-14T00:02:08;13.10;60.80
68378;DHT22;55322;48.146;11.516;2023-06-14T00:04:34;13.11;63.04
68378;DHT22;55322;48.146;11.516;2023-06-14T00:06:59;13.08;63.95
68378;DHT22;55322;48.146;11.516;2023-06-14T00:09:25;13.02;63.65
68378;DHT22;55322;48.146;11.516;2023-06-14T00:11:50;12.89;63.26
68378;DHT22;55322;48.146;11.516;2023-06-14T00:14:16;12.86;63.76
68378;DHT22;55322;48.146;11.516;2023-06-14T00:16:41;12.94;64.80
68378;DHT22;55322;48.146;11.516;2023-06-14T00:19:08;12.84;64.32
68378;DHT22;55322;48.146;11.516;2023-06-14T00:21:35;12.72;64.83
68378;DHT22;55322;48.146;11.516;2023-06-14T00:24:01;12.63;64.26
68378;DHT22;55322;48.146;11.516;2023-06-14T00:26:27;12.56;64.56
68378;DHT22;55322;48.146;11.516;2023-06-14T00:28:55;12.56;64.22
68378;DHT22;55322;48.146;11.516;2023-06-14T00:31:22;12.62;65.62
68378;DHT22;55322;48.146;11.516;2023-06-14T00:33:48;12.60;65.96
68378;DHT22;55322;48.146;11.516;2023-06-14T00:36:13;12.64;65.68
68378;DHT22;55322;48.146;11.516;2023-06-14T00:38:38;12.57;66.45
68378;DHT22;55322;48.146;11.516;2023-06-14T00:41:05;12.66;66.72
68378;DHT22;55322;48.146;11.516;2023-06-14T00:43:30;12.48;66.07
68378;DHT22;55322;48.146;11.516;2023-06-14T00:45:55;12.38;65.28
68378;DHT22;55322;48.146;11.516;2023-06-14T00:48:21;12.28;65.22
68378;DHT22;55322;48.146;11.516;2023-06-14T00:50:49;12.24;66.12
68378;DHT22;55322;48.146;11.516;2023-06-14T00:53:16;12.25;66.43
68378;DHT22;55322;48.146;11.516;2023-06-14T00:55:43;12.25;66.78
68378;DHT22;55322;48.146;11.516;2023-06-14T00:58:09;12.17;67.04
68378;DHT22;55322;48.146;11.516;2023-06-14T01:00:35;12.04;67.38
68378;DHT22;55322;48.146;11.516;2023-06-14T01:03:01;11.95;67.16
68378;DHT22;55322;48.146;11.516;2023-06-14T01:05:26;11.89;67.06
68378;DHT22;55322;48.146;11.516;2023-06-14T01:13:21;11.85;69.24
68378;DHT22;55322;48.146;11.516;2023-06-14T01:15:50;11.77;67.49
68378;DHT22;55322;48.146;11.516;2023-06-14T01:18:16;11.67;67.61
68378;DHT22;55322;48.146;11.516;2023-06-14T01:20:43;11.58;68.45
68378;DHT22;55322;48.146;11.516;2023-06-14T01:23:11;11.55;68.46
68378;DHT22;55322;48.146;11.516;2023-06-14T01:25:39;11.64;69.45
68378;DHT22;55322;48.146;11.516;2023-06-14T01:28:06;11.51;69.05
68378;DHT22;55322;48.146;11.516;2023-06-14T01:30:37;11.43;69.76
68378;DHT22;55322;48.146;11.516;2023-06-14T01:33:04;11.41;70.40
68378;DHT22;55322;48.146;11.516;2023-06-14T01:35:30;11.35;70.09
68378;DHT22;55322;48.146;11.516;2023-06-14T01:37:56;11.41;70.54
68378;DHT22;55322;48.146;11.516;2023-06-14T01:40:22;11.30;70.23
68378;DHT22;55322;48.146;11.516;2023-06-14T01:42:50;11.22;70.27
68378;DHT22;55322;48.146;11.516;2023-06-14T01:45:16;11.10;70.70
68378;DHT22;55322;48.146;11.516;2023-06-14T01:47:43;11.04;70.39
68378;DHT22;55322;48.146;11.516;2023-06-14T01:50:09;10.95;70.79
68378;DHT22;55322;48.146;11.516;2023-06-14T01:52:34;11.02;71.18
68378;DHT22;55322;48.146;11.516;2023-06-14T01:55:00;10.96;71.07
68378;DHT22;55322;48.146;11.516;2023-06-14T01:57:28;10.96;70.96
68378;DHT22;55322;48.146;11.516;2023-06-14T01:59:53;10.96;71.29
68378;DHT22;55322;48.146;11.516;2023-06-14T02:02:18;11.02;72.51
68378;DHT22;55322;48.146;11.516;2023-06-14T02:04:44;11.02;71.86
68378;DHT22;55322;48.146;11.516;2023-06-14T02:07:12;11.00;71.46
68378;DHT22;55322;48.146;11.516;2023-06-14T02:09:38;11.03;71.71
68378;DHT22;55322;48.146;11.516;2023-06-14T02:12:03;11.00;71.53
68378;DHT22;55322;48.146;11.516;2023-06-14T02:14:28;10.96;72.03
68378;DHT22;55322;48.146;11.516;2023-06-14T02:16:54;10.99;71.84
68378;DHT22;55322;48.146;11.516;2023-06-14T02:19:20;10.97;72.15
68378;DHT22;55322;48.146;11.516;2023-06-14T02:21:46;10.89;71.61
68378;DHT22;55322;48.146;11.516;2023-06-14T02:24:12;10.93;72.53
68378;DHT22;55322;48.146;11.516;2023-06-14T02:26:37;10.89;71.85
68378;DHT22;55322;48.146;11.516;2023-06-14T02:29:08;10.90;71.59
68378;DHT22;55322;48.146;11.516;2023-06-14T02:31:36;10.89;72.76
68378;DHT22;55322;48.146;11.516;2023-06-14T02:34:01;10.93;72.96
68378;DHT22;55322;48.146;11.516;2023-06-14T02:36:27;10.88;73.09
68378;DHT22;55322;48.146;11.516;2023-06-14T02:38:54;10.77;72.81
68378;DHT22;55322;48.146;11.516;2023-06-14T02:41:22;10.72;72.22
68378;DHT22;55322;48.146;11.516;2023-06-14T02:43:47;10.68;72.22
68378;DHT22;55322;48.146;11.516;2023-06-14T02:46:13;10.62;71.83
68378;DHT22;55322;48.146;11.516;2023-06-14T02:48:38;10.59;71.63
68378;DHT22;55322;48.146;11.516;2023-06-14T02:51:03;10.55;72.54
68378;DHT22;55322;48.146;11.516;2023-06-14T02:53:29;10.55;72.68
68378;DHT22;55322;48.146;11.516;2023-06-14T02:55:54;10.46;73.01
68378;DHT22;55322;48.146;11.516;2023-06-14T02:58:20;10.37;73.38
68378;DHT22;55322;48.146;11.516;2023-06-14T03:00:46;10.32;73.81
68378;DHT22;55322;48.146;11.516;2023-06-14T03:03:11;10.34;74.51
68378;DHT22;55322;48.146;11.516;2023-06-14T03:05:51;10.44;73.97
68378;DHT22;55322;48.146;11.516;2023-06-14T03:08:17;10.34;74.30
68378;DHT22;55322;48.146;11.516;2023-06-14T03:10:45;10.25;73.93
68378;DHT22;55322;48.146;11.516;2023-06-14T03:13:12;10.22;73.67
68378;DHT22;55322;48.146;11.516;2023-06-14T03:15:37;10.14;73.59
68378;DHT22;55322;48.146;11.516;2023-06-14T03:18:03;10.04;73.73
68378;DHT22;55322;48.146;11.516;2023-06-14T03:20:29;9.99;73.97
68378;DHT22;55322;48.146;11.516;2023-06-14T03:22:59;9.95;74.19
68378;DHT22;55322;48.146;11.516;2023-06-14T03:25:25;10.04;73.82
68378;DHT22;55322;48.146;11.516;2023-06-14T03:27:51;9.99;73.23
68378;DHT22;55322;48.146;11.516;2023-06-14T03:30:16;9.98;74.15
68378;DHT22;55322;48.146;11.516;2023-06-14T03:32:42;9.95;73.87
68378;DHT22;55322;48.146;11.516;2023-06-14T03:35:07;10.11;75.62
68378;DHT22;55322;48.146;11.516;2023-06-14T03:37:33;9.97;75.74
68378;DHT22;55322;48.146;11.516;2023-06-14T03:39:58;9.95;76.38
68378;DHT22;55322;48.146;11.516;2023-06-14T03:42:23;9.97;76.78
68378;DHT22;55322;48.146;11.516;2023-06-14T03:44:48;9.98;76.54
68378;DHT22;55322;48.146;11.516;2023-06-14T03:47:14;10.05;76.21
68378;DHT22;55322;48.146;11.516;2023-06-14T03:49:40;10.01;77.24
68378;DHT22;55322;48.146;11.516;2023-06-14T03:52:06;9.99;77.55
68378;DHT22;55322;48.146;11.516;2023-06-14T03:54:31;9.95;78.02
68378;DHT22;55322;48.146;11.516;2023-06-14T03:56:58;9.90;79.30
68378;DHT22;55322;48.146;11.516;2023-06-14T03:59:23;9.88;78.77
68378;DHT22;55322;48.146;11.516;2023-06-14T04:01:49;9.99;79.49
68378;DHT22;55322;48.146;11.516;2023-06-14T04:04:14;10.01;78.74
68378;DHT22;55322;48.146;11.516;2023-06-14T04:06:41;10.05;79.21
68378;DHT22;55322;48.146;11.516;2023-06-14T04:09:08;10.05;79.79
68378;DHT22;55322;48.146;11.516;2023-06-14T04:11:33;10.09;80.16
68378;DHT22;55322;48.146;11.516;2023-06-14T04:13:59;10.14;80.17
68378;DHT22;55322;48.146;11.516;2023-06-14T04:16:24;10.19;79.94
68378;DHT22;55322;48.146;11.516;2023-06-14T04:18:50;10.25;80.26
68378;DHT22;55322;48.146;11.516;2023-06-14T04:21:17;10.28;80.00
68378;DHT22;55322;48.146;11.516;2023-06-14T04:23:43;10.38;79.70
68378;DHT22;55322;48.146;11.516;2023-06-14T04:26:09;10.35;79.82
68378;DHT22;55322;48.146;11.516;2023-06-14T04:28:35;10.38;79.74
68378;DHT22;55322;48.146;11.516;2023-06-14T04:31:08;10.45;79.93
68378;DHT22;55322;48.146;11.516;2023-06-14T04:33:37;10.58;80.36
68378;DHT22;55322;48.146;11.516;2023-06-14T04:36:10;10.70;80.68
68378;DHT22;55322;48.146;11.516;2023-06-14T04:38:37;10.75;79.85
68378;DHT22;55322;48.146;11.516;2023-06-14T04:41:03;10.83;79.76
68378;DHT22;55322;48.146;11.516;2023-06-14T04:43:28;10.88;80.48
68378;DHT22;55322;48.146;11.516;2023-06-14T04:45:53;10.90;80.10
68378;DHT22;55322;48.146;11.516;2023-06-14T04:48:22;11.00;79.71
68378;DHT22;55322;48.146;11.516;2023-06-14T04:50:48;11.09;79.26
68378;DHT22;55322;48.146;11.516;2023-06-14T04:53:13;11.27;79.91
68378;DHT22;55322;48.146;11.516;2023-06-14T04:55:38;11.38;78.82
68378;DHT22;55322;48.146;11.516;2023-06-14T04:58:04;11.48;75.03
68378;DHT22;55322;48.146;11.516;2023-06-14T05:00:30;11.63;72.17
68378;DHT22;55322;48.146;11.516;2023-06-14T05:02:55;11.82;70.84
68378;DHT22;55322;48.146;11.516;2023-06-14T05:05:22;12.11;67.73
68378;DHT22;55322;48.146;11.516;2023-06-14T05:07:47;12.28;69.64
68378;DHT22;55322;48.146;11.516;2023-06-14T05:10:13;12.56;63.63
68378;DHT22;55322;48.146;11.516;2023-06-14T05:12:38;12.77;63.71
68378;DHT22;55322;48.146;11.516;2023-06-14T05:15:04;13.00;62.54
68378;DHT22;55322;48.146;11.516;2023-06-14T05:17:30;13.15;62.38
68378;DHT22;55322;48.146;11.516;2023-06-14T05:19:55;13.30;62.08
68378;DHT22;55322;48.146;11.516;2023-06-14T05:22:23;13.58;62.15
68378;DHT22;55322;48.146;11.516;2023-06-14T05:24:48;13.75;61.23
68378;DHT22;55322;48.146;11.516;2023-06-14T05:27:14;13.89;60.25
68378;DHT22;55322;48.146;11.516;2023-06-14T05:29:39;14.18;59.42
68378;DHT22;55322;48.146;11.516;2023-06-14T05:32:05;14.19;60.85
68378;DHT22;55322;48.146;11.516;2023-06-14T05:34:31;14.37;58.96
68378;DHT22;55322;48.146;11.516;2023-06-14T05:36:56;14.56;57.66
68378;DHT22;55322;48.146;11.516;2023-06-14T05:39:22;14.83;56.21
68378;DHT22;55322;48.146;11.516;2023-06-14T05:41:47;15.49;56.36
68378;DHT22;55322;48.146;11.516;2023-06-14T05:44:12;16.14;53.42
68378;DHT22;55322;48.146;11.516;2023-06-14T05:46:38;16.49;53.63
68378;DHT22;55322;48.146;11.516;2023-06-14T05:49:05;17.07;52.12
68378;DHT22;55322;48.146;11.516;2023-06-14T05:51:30;18.07;50.89
68378;DHT22;55322;48.146;11.516;2023-06-14T05:53:55;18.68;49.19
68378;DHT22;55322;48.146;11.516;2023-06-14T05:56:21;19.14;49.22
68378;DHT22;55322;48.146;11.516;2023-06-14T05:58:46;20.09;43.23
68378;DHT22;55322;48.146;11.516;2023-06-14T06:01:13;21.05;40.62
68378;DHT22;55322;48.146;11.516;2023-06-14T06:03:38;20.76;41.80
68378;DHT22;55322;48.146;11.516;2023-06-14T06:06:04;22.17;39.84
68378;DHT22;55322;48.146;11.516;2023-06-14T06:08:29;23.00;39.12
68378;DHT22;55322;48.146;11.516;2023-06-14T06:10:56;22.62;38.18
68378;DHT22;55322;48.146;11.516;2023-06-14T06:13:22;23.61;37.28
68378;DHT22;55322;48.146;11.516;2023-06-14T06:15:47;24.14;36.11
68378;DHT22;55322;48.146;11.516;2023-06-14T06:18:12;24.25;38.22
68378;DHT22;55322;48.146;11.516;2023-06-14T06:20:38;23.66;37.57
68378;DHT22;55322;48.146;11.516;2023-06-14T06:23:03;23.40;38.61
68378;DHT22;55322;48.146;11.516;2023-06-14T06:25:29;23.75;36.54
68378;DHT22;55322;48.146;11.516;2023-06-14T06:27:57;23.29;39.74
68378;DHT22;55322;48.146;11.516;2023-06-14T06:30:23;22.64;37.40
68378;DHT22;55322;48.146;11.516;2023-06-14T06:32:48;22.69;36.62
68378;DHT22;55322;48.146;11.516;2023-06-14T06:35:13;22.66;38.00
68378;DHT22;55322;48.146;11.516;2023-06-14T06:37:39;21.94;38.56
68378;DHT22;55322;48.146;11.516;2023-06-14T06:40:05;22.65;38.62
68378;DHT22;55322;48.146;11.516;2023-06-14T06:42:31;22.21;38.84
68378;DHT22;55322;48.146;11.516;2023-06-14T06:44:57;21.98;39.37
68378;DHT22;55322;48.146;11.516;2023-06-14T06:47:22;22.44;39.94
68378;DHT22;55322;48.146;11.516;2023-06-14T06:49:48;22.44;38.38
68378;DHT22;55322;48.146;11.516;2023-06-14T06:52:13;22.31;41.06
68378;DHT22;55322;48.146;11.516;2023-06-14T06:54:39;21.87;40.29
68378;DHT22;55322;48.146;11.516;2023-06-14T06:57:04;21.36;41.54
68378;DHT22;55322;48.146;11.516;2023-06-14T06:59:31;20.98;39.84
68378;DHT22;55322;48.146;11.516;2023-06-14T07:01:57;20.96;41.93
68378;DHT22;55322;48.146;11.516;2023-06-14T07:04:22;20.54;43.77
68378;DHT22;55322;48.146;11.516;2023-06-14T07:06:48;19.90;45.82
68378;DHT22;55322;48.146;11.516;2023-06-14T07:09:13;20.28;43.97
68378;DHT22;55322;48.146;11.516;2023-06-14T07:11:40;20.92;41.45
68378;DHT22;55322;48.146;11.516;2023-06-14T07:14:05;20.37;41.60
68378;DHT22;55322;48.146;11.516;2023-06-14T07:16:31;21.10;43.17
68378;DHT22;55322;48.146;11.516;2023-06-14T07:18:56;20.58;44.75
68378;DHT22;55322;48.146;11.516;2023-06-14T07:21:21;20.14;45.93
68378;DHT22;55322;48.146;11.516;2023-06-14T07:23:47;19.71;45.45
68378;DHT22;55322;48.146;11.516;2023-06-14T07:26:12;20.13;47.12
68378;DHT22;55322;48.146;11.516;2023-06-14T07:28:37;20.25;43.19
68378;DHT22;55322;48.146;11.516;2023-06-14T07:31:03;20.09;43.56
68378;DHT22;55322;48.146;11.516;2023-06-14T07:33:28;20.31;42.36
68378;DHT22;55322;48.146;11.516;2023-06-14T07:35:53;20.72;42.60
68378;DHT22;55322;48.146;11.516;2023-06-14T07:38:19;20.74;44.02
68378;DHT22;55322;48.146;11.516;2023-06-14T07:40:44;20.85;45.35
68378;DHT22;55322;48.146;11.516;2023-06-14T07:43:10;20.92;42.56
68378;DHT22;55322;48.146;11.516;2023-06-14T07:45:37;20.61;45.43
68378;DHT22;55322;48.146;11.516;2023-06-14T07:48:02;20.81;44.25
68378;DHT22;55322;48.146;11.516;2023-06-14T07:50:28;21.05;43.21
68378;DHT22;55322;48.146;11.516;2023-06-14T07:52:53;21.49;40.76
68378;DHT22;55322;48.146;11.516;2023-06-14T07:55:19;21.89;42.99
68378;DHT22;55322;48.146;11.516;2023-06-14T07:57:44;22.10;40.93
68378;DHT22;55322;48.146;11.516;2023-06-14T08:00:10;22.49;40.00
68378;DHT22;55322;48.146;11.516;2023-06-14T08:02:40;22.86;38.92
68378;DHT22;55322;48.146;11.516;2023-06-14T08:05:05;22.58;36.76
68378;DHT22;55322;48.146;11.516;2023-06-14T08:07:31;22.37;38.32
68378;DHT22;55322;48.146;11.516;2023-06-14T08:09:56;22.72;36.52
68378;DHT22;55322;48.146;11.516;2023-06-14T08:12:21;23.02;35.51
68378;DHT22;55322;48.146;11.516;2023-06-14T08:14:47;22.37;33.66
68378;DHT22;55322;48.146;11.516;2023-06-14T08:17:12;22.66;37.24
68378;DHT22;55322;48.146;11.516;2023-06-14T08:19:38;22.15;33.45
68378;DHT22;55322;48.146;11.516;2023-06-14T08:22:03;22.22;36.41
68378;DHT22;55322;48.146;11.516;2023-06-14T08:24:29;22.38;38.13
68378;DHT22;55322;48.146;11.516;2023-06-14T08:26:54;22.42;37.91
68378;DHT22;55322;48.146;11.516;2023-06-14T08:29:19;22.44;35.93
68378;DHT22;55322;48.146;11.516;2023-06-14T08:31:45;22.71;37.23
68378;DHT22;55322;48.146;11.516;2023-06-14T08:34:11;22.44;38.11
68378;DHT22;55322;48.146;11.516;2023-06-14T08:36:36;22.54;38.87
68378;DHT22;55322;48.146;11.516;2023-06-14T08:39:02;22.86;34.33
68378;DHT22;55322;48.146;11.516;2023-06-14T08:41:28;22.99;33.86
68378;DHT22;55322;48.146;11.516;2023-06-14T08:43:54;23.51;35.68
68378;DHT22;55322;48.146;11.516;2023-06-14T08:46:20;24.05;34.85
68378;DHT22;55322;48.146;11.516;2023-06-14T08:48:47;24.14;33.27
68378;DHT22;55322;48.146;11.516;2023-06-14T08:51:14;23.54;34.11
68378;DHT22;55322;48.146;11.516;2023-06-14T08:53:42;23.49;35.48
68378;DHT22;55322;48.146;11.516;2023-06-14T08:56:08;23.67;35.82
68378;DHT22;55322;48.146;11.516;2023-06-14T08:58:44;24.07;33.23
68378;DHT22;55322;48.146;11.516;2023-06-14T09:01:13;24.01;33.97
68378;DHT22;55322;48.146;11.516;2023-06-14T09:03:42;24.00;36.48
68378;DHT22;55322;48.146;11.516;2023-06-14T09:06:08;23.70;35.95
68378;DHT22;55322;48.146;11.516;2023-06-14T09:08:42;23.43;35.28
68378;DHT22;55322;48.146;11.516;2023-06-14T09:11:08;23.84;36.68
68378;DHT22;55322;48.146;11.516;2023-06-14T09:13:35;24.28;34.04
68378;DHT22;55322;48.146;11.516;2023-06-14T09:16:00;24.05;32.15
68378;DHT22;55322;48.146;11.516;2023-06-14T09:18:55;23.84;32.53
68378;DHT22;55322;48.146;11.516;2023-06-14T09:21:20;24.01;32.03
68378;DHT22;55322;48.146;11.516;2023-06-14T09:23:47;23.93;31.41
68378;DHT22;55322;48.146;11.516;2023-06-14T09:26:19;24.18;34.29
68378;DHT22;55322;48.146;11.516;2023-06-14T09:28:46;24.51;36.13
68378;DHT22;55322;48.146;11.516;2023-06-14T09:31:13;24.34;36.82
68378;DHT22;55322;48.146;11.516;2023-06-14T09:33:41;23.85;34.46
68378;DHT22;55322;48.146;11.516;2023-06-14T09:36:12;24.61;37.87
68378;DHT22;55322;48.146;11.516;2023-06-14T09:38:40;24.76;33.62
68378;DHT22;55322;48.146;11.516;2023-06-14T09:41:05;23.67;35.30
68378;DHT22;55322;48.146;11.516;2023-06-14T09:43:32;23.15;37.95
68378;DHT22;55322;48.146;11.516;2023-06-14T09:46:00;23.31;37.68
68378;DHT22;55322;48.146;11.516;2023-06-14T09:48:26;23.50;38.56
68378;DHT22;55322;48.146;11.516;2023-06-14T09:50:51;23.87;36.98
68378;DHT22;55322;48.146;11.516;2023-06-14T09:53:21;23.66;35.86
68378;DHT22;55322;48.146;11.516;2023-06-14T09:55:49;23.74;36.08
68378;DHT22;55322;48.146;11.516;2023-06-14T09:58:16;24.42;34.13
68378;DHT22;55322;48.146;11.516;2023-06-14T10:00:42;25.24;34.84
68378;DHT22;55322;48.146;11.516;2023-06-14T10:03:12;24.83;33.93
68378;DHT22;55322;48.146;11.516;2023-06-14T10:05:39;25.47;33.99
68378;DHT22;55322;48.146;11.516;2023-06-14T10:08:11;25.05;35.31
68378;DHT22;55322;48.146;11.516;2023-06-14T10:10:39;24.97;34.33
68378;DHT22;55322;48.146;11.516;2023-06-14T10:13:05;25.27;33.65
68378;DHT22;55322;48.146;11.516;2023-06-14T10:15:55;24.32;35.69
68378;DHT22;55322;48.146;11.516;2023-06-14T10:18:31;24.24;35.45
68378;DHT22;55322;48.146;11.516;2023-06-14T10:23:42;25.36;34.30
68378;DHT22;55322;48.146;11.516;2023-06-14T10:26:08;24.72;34.99
68378;DHT22;55322;48.146;11.516;2023-06-14T10:28:37;24.90;36.52
68378;DHT22;55322;48.146;11.516;2023-06-14T10:33:33;24.59;33.83
68378;DHT22;55322;48.146;11.516;2023-06-14T10:36:25;23.36;36.19
68378;DHT22;55322;48.146;11.516;2023-06-14T10:38:59;22.68;38.69
68378;DHT22;55322;48.146;11.516;2023-06-14T10:41:28;22.45;40.29
68378;DHT22;55322;48.146;11.516;2023-06-14T10:46:38;23.37;39.25
68378;DHT22;55322;48.146;11.516;2023-06-14T10:49:03;24.08;37.06
68378;DHT22;55322;48.146;11.516;2023-06-14T10:51:38;24.36;37.78
68378;DHT22;55322;48.146;11.516;2023-06-14T10:54:12;23.71;35.66
68378;DHT22;55322;48.146;11.516;2023-06-14T10:56:45;22.86;37.65
68378;DHT22;55322;48.146;11.516;2023-06-14T10:59:11;23.37;39.08
68378;DHT22;55322;48.146;11.516;2023-06-14T11:04:20;24.08;37.43
68378;DHT22;55322;48.146;11.516;2023-06-14T11:06:47;24.69;34.57
68378;DHT22;55322;48.146;11.516;2023-06-14T11:09:28;24.89;34.37
68378;DHT22;55322;48.146;11.516;2023-06-14T11:12:00;24.90;36.01
68378;DHT22;55322;48.146;11.516;2023-06-14T11:14:30;25.12;34.70
68378;DHT22;55322;48.146;11.516;2023-06-14T11:16:56;24.79;35.16
68378;DHT22;55322;48.146;11.516;2023-06-14T11:19:21;25.12;33.22
68378;DHT22;55322;48.146;11.516;2023-06-14T11:21:47;24.73;31.83
68378;DHT22;55322;48.146;11.516;2023-06-14T11:24:13;25.17;34.21
68378;DHT22;55322;48.146;11.516;2023-06-14T11:26:40;24.20;30.60
68378;DHT22;55322;48.146;11.516;2023-06-14T11:29:05;24.55;33.29
68378;DHT22;55322;48.146;11.516;2023-06-14T11:31:31;24.47;34.04
68378;DHT22;55322;48.146;11.516;2023-06-14T11:33:58;24.73;34.35
68378;DHT22;55322;48.146;11.516;2023-06-14T11:36:29;24.01;33.34
68378;DHT22;55322;48.146;11.516;2023-06-14T11:38:59;24.66;35.42
68378;DHT22;55322;48.146;11.516;2023-06-14T11:41:24;24.25;34.64
68378;DHT22;55322;48.146;11.516;2023-06-14T11:43:53;23.77;32.37
68378;DHT22;55322;48.146;11.516;2023-06-14T11:46:19;23.88;33.30
68378;DHT22;55322;48.146;11.516;2023-06-14T11:48:49;23.97;32.26
68378;DHT22;55322;48.146;11.516;2023-06-14T11:51:14;23.98;33.47
68378;DHT22;55322;48.146;11.516;2023-06-14T11:53:40;24.28;33.07
68378;DHT22;55322;48.146;11.516;2023-06-14T11:56:07;24.10;30.00
68378;DHT22;55322;48.146;11.516;2023-06-14T11:58:32;24.20;29.80
68378;DHT22;55322;48.146;11.516;2023-06-14T12:00:58;24.82;30.63
68378;DHT22;55322;48.146;11.516;2023-06-14T12:03:24;25.19;30.48
68378;DHT22;55322;48.146;11.516;2023-06-14T12:06:01;24.68;30.37
68378;DHT22;55322;48.146;11.516;2023-06-14T12:08:32;24.25;29.72
68378;DHT22;55322;48.146;11.516;2023-06-14T12:11:03;23.74;32.61
68378;DHT22;55322;48.146;11.516;2023-06-14T12:13:29;23.60;33.70
68378;DHT22;55322;48.146;11.516;2023-06-14T12:15:56;23.46;33.36
68378;DHT22;55322;48.146;11.516;2023-06-14T12:18:31;24.17;35.35
68378;DHT22;55322;48.146;11.516;2023-06-14T12:20:58;24.05;32.73
68378;DHT22;55322;48.146;11.516;2023-06-14T12:23:47;24.28;33.97
68378;DHT22;55322;48.146;11.516;2023-06-14T12:26:17;23.70;34.03
68378;DHT22;55322;48.146;11.516;2023-06-14T12:28:44;24.28;33.20
68378;DHT22;55322;48.146;11.516;2023-06-14T12:31:11;24.42;32.56
68378;DHT22;55322;48.146;11.516;2023-06-14T12:33:37;24.51;30.28
68378;DHT22;55322;48.146;11.516;2023-06-14T12:36:04;24.20;31.17
68378;DHT22;55322;48.146;11.516;2023-06-14T12:38:30;23.96;33.17
68378;DHT22;55322;48.146;11.516;2023-06-14T12:40:56;23.60;33.80
68378;DHT22;55322;48.146;11.516;2023-06-14T12:43:22;23.85;34.24
68378;DHT22;55322;48.146;11.516;2023-06-14T12:45:48;23.63;31.67
68378;DHT22;55322;48.146;11.516;2023-06-14T12:48:13;23.87;34.40
68378;DHT22;55322;48.146;11.516;2023-06-14T12:50:38;23.91;33.49
68378;DHT22;55322;48.146;11.516;2023-06-14T12:53:04;23.49;33.50
68378;DHT22;55322;48.146;11.516;2023-06-14T12:55:29;23.34;33.45
68378;DHT22;55322;48.146;11.516;2023-06-14T12:57:55;23.27;34.07
68378;DHT22;55322;48.146;11.516;2023-06-14T13:00:20;23.07;33.91
68378;DHT22;55322;48.146;11.516;2023-06-14T13:02:47;23.36;33.38
68378;DHT22;55322;48.146;11.516;2023-06-14T13:05:12;23.02;32.84
68378;DHT22;55322;48.146;11.516;2023-06-14T13:07:37;22.65;35.61
68378;DHT22;55322;48.146;11.516;2023-06-14T13:10:03;22.47;37.33
68378;DHT22;55322;48.146;11.516;2023-06-14T13:12:29;22.30;38.08
68378;DHT22;55322;48.146;11.516;2023-06-14T13:14:54;22.14;35.12
68378;DHT22;55322;48.146;11.516;2023-06-14T13:17:19;22.32;36.95
68378;DHT22;55322;48.146;11.516;2023-06-14T13:19:45;22.91;35.33
68378;DHT22;55322;48.146;11.516;2023-06-14T13:22:10;23.13;34.49
68378;DHT22;55322;48.146;11.516;2023-06-14T13:24:36;23.51;35.68
68378;DHT22;55322;48.146;11.516;2023-06-14T13:27:02;23.39;34.43
68378;DHT22;55322;48.146;11.516;2023-06-14T13:29:27;23.33;34.99
68378;DHT22;55322;48.146;11.516;2023-06-14T13:31:53;23.17;34.91
68378;DHT22;55322;48.146;11.516;2023-06-14T13:34:18;22.89;34.61
68378;DHT22;55322;48.146;11.516;2023-06-14T13:36:44;22.89;34.31
68378;DHT22;55322;48.146;11.516;2023-06-14T13:39:09;22.92;33.86
68378;DHT22;55322;48.146;11.516;2023-06-14T13:41:36;22.99;34.66
68378;DHT22;55322;48.146;11.516;2023-06-14T13:44:02;23.03;33.49
68378;DHT22;55322;48.146;11.516;2023-06-14T13:46:29;23.36;33.00
68378;DHT22;55322;48.146;11.516;2023-06-14T13:48:54;23.59;34.13
68378;DHT22;55322;48.146;11.516;2023-06-14T13:51:20;23.45;33.98
68378;DHT22;55322;48.146;11.516;2023-06-14T13:53:47;23.36;35.78
68378;DHT22;55322;48.146;11.516;2023-06-14T13:56:12;23.29;34.48
68378;DHT22;55322;48.146;11.516;2023-06-14T13:58:38;22.99;33.88
68378;DHT22;55322;48.146;11.516;2023-06-14T14:01:03;23.07;33.54
68378;DHT22;55322;48.146;11.516;2023-06-14T14:03:29;23.33;34.48
68378;DHT22;55322;48.146;11.516;2023-06-14T14:05:54;23.19;35.16
68378;DHT22;55322;48.146;11.516;2023-06-14T14:08:19;23.12;34.19
68378;DHT22;55322;48.146;11.516;2023-06-14T14:10:45;23.12;34.19
68378;DHT22;55322;48.146;11.516;2023-06-14T14:13:10;23.24;32.47
68378;DHT22;55322;48.146;11.516;2023-06-14T14:15:37;23.27;31.15
68378;DHT22;55322;48.146;11.516;2023-06-14T14:18:02;23.24;30.90
68378;DHT22;55322;48.146;11.516;2023-06-14T14:20:30;23.16;31.10
68378;DHT22;55322;48.146;11.516;2023-06-14T14:22:55;23.06;33.67
68378;DHT22;55322;48.146;11.516;2023-06-14T14:25:21;23.51;33.88
68378;DHT22;55322;48.146;11.516;2023-06-14T14:27:47;23.80;33.00
68378;DHT22;55322;48.146;11.516;2023-06-14T14:30:12;23.93;31.20
68378;DHT22;55322;48.146;11.516;2023-06-14T14:32:39;23.91;32.47
68378;DHT22;55322;48.146;11.516;2023-06-14T14:35:05;23.71;33.96
68378;DHT22;55322;48.146;11.516;2023-06-14T14:37:31;23.61;34.56
68378;DHT22;55322;48.146;11.516;2023-06-14T14:39:56;23.00;34.35
68378;DHT22;55322;48.146;11.516;2023-06-14T14:42:21;22.84;36.03
68378;DHT22;55322;48.146;11.516;2023-06-14T14:44:47;22.52;34.96
68378;DHT22;55322;48.146;11.516;2023-06-14T14:47:12;22.52;33.00
68378;DHT22;55322;48.146;11.516;2023-06-14T14:49:37;22.55;33.09
68378;DHT22;55322;48.146;11.516;2023-06-14T14:52:03;22.64;33.65
68378;DHT22;55322;48.146;11.516;2023-06-14T14:54:28;22.68;33.85
68378;DHT22;55322;48.146;11.516;2023-06-14T14:56:54;22.54;36.06
68378;DHT22;55322;48.146;11.516;2023-06-14T14:59:20;22.24;37.95
68378;DHT22;55322;48.146;11.516;2023-06-14T15:01:47;21.94;37.37
68378;DHT22;55322;48.146;11.516;2023-06-14T15:04:12;21.93;38.11
68378;DHT22;55322;48.146;11.516;2023-06-14T15:06:38;21.79;38.11
68378;DHT22;55322;48.146;11.516;2023-06-14T15:09:05;22.24;35.95
68378;DHT22;55322;48.146;11.516;2023-06-14T15:11:31;22.31;36.98
68378;DHT22;55322;48.146;11.516;2023-06-14T15:13:56;22.62;34.97
68378;DHT22;55322;48.146;11.516;2023-06-14T15:16:21;22.58;34.16
68378;DHT22;55322;48.146;11.516;2023-06-14T15:18:47;22.49;37.78
68378;DHT22;55322;48.146;11.516;2023-06-14T15:21:12;22.61;34.66
68378;DHT22;55322;48.146;11.516;2023-06-14T15:23:38;22.28;35.44
68378;DHT22;55322;48.146;11.516;2023-06-14T15:26:03;22.18;38.53
68378;DHT22;55322;48.146;11.516;2023-06-14T15:28:29;21.98;35.94
68378;DHT22;55322;48.146;11.516;2023-06-14T15:30:55;21.64;39.71